sensor_id;sensor_type;location;lat;lon;timestamp;pressure;altitude;pressure_sealevel;temperature;humidity
48824;BME280;34640;53.590;10.054;2022-08-19T00:01:15;100816.50;;;20.17;100.00
48824;BME280;34640;53.590;10.054;2022-08-19T00:04:37;100801.50;;;20.15;100.00
48824;BME280;34640;53.590;10.054;2022-08-19T00:07:50;100790.03;;;20.15;100.00
48824;BME280;34640;53.590;10.054;2022-08-19T00:11:02;100782.06;;;20.13;100.00
48824;BME280;34640;53.590;10.054;2022-08-19T00:14:15;100774.94;;;20.09;100.00
48824;BME280;34640;53.590;10.054;2022-08-19T00:17:26;100771.38;;;20.09;100.00
48824;BME280;34640;53.590;10.054;2022-08-19T00:20:36;100782.88;;;20.11;100.00
48824;BME280;34640;53.590;10.054;2022-08-19T00:23:49;100785.53;;;20.11;100.00
48824;BME280;34640;53.590;10.054;2022-08-19T00:27:00;100789.22;;;20.18;100.00
48824;BME280;34640;53.590;10.054;2022-08-19T00:30:30;100781.97;;;20.09;100.00
48824;BME280;34640;53.590;10.054;2022-08-19T00:33:41;100786.31;;;20.05;100.00
48824;BME280;34640;53.590;10.054;2022-08-19T00:36:52;100783.63;;;20.04;100.00
48824;BME280;34640;53.590;10.054;2022-08-19T00:40:05;100779.25;;;20.06;100.00
48824;BME280;34640;53.590;10.054;2022-08-19T00:43:21;100780.13;;;20.05;100.00
48824;BME280;34640;53.590;10.054;2022-08-19T00:46:32;100776.75;;;20.12;100.00
48824;BME280;34640;53.590;10.054;2022-08-19T00:49:47;100765.41;;;20.18;100.00
48824;BME280;34640;53.590;10.054;2022-08-19T00:53:00;100765.25;;;20.10;100.00
48824;BME280;34640;53.590;10.054;2022-08-19T00:56:12;100764.38;;;20.11;100.00
48824;BME280;34640;53.590;10.054;2022-08-19T00:59:27;100765.16;;;20.05;100.00
48824;BME280;34640;53.590;10.054;2022-08-19T01:02:57;100763.41;;;20.06;100.00
48824;BME280;34640;53.590;10.054;2022-08-19T01:06:08;100753.78;;;20.09;100.00
48824;BME280;34640;53.590;10.054;2022-08-19T01:09:18;100756.41;;;20.09;100.00
48824;BME280;34640;53.590;10.054;2022-08-19T01:12:28;100761.63;;;20.05;100.00
48824;BME280;34640;53.590;10.054;2022-08-19T01:15:42;100770.50;;;20.08;100.00
48824;BME280;34640;53.590;10.054;2022-08-19T01:18:53;100765.28;;;20.13;100.00
48824;BME280;34640;53.590;10.054;2022-08-19T01:22:09;100752.06;;;20.13;100.00
48824;BME280;34640;53.590;10.054;2022-08-19T01:25:28;100747.75;;;20.17;100.00
48824;BME280;34640;53.590;10.054;2022-08-19T01:28:43;100753.09;;;20.18;100.00
48824;BME280;34640;53.590;10.054;2022-08-19T01:31:53;100756.59;;;20.17;100.00
48824;BME280;34640;53.590;10.054;2022-08-19T01:35:05;100757.38;;;20.13;100.00
48824;BME280;34640;53.590;10.054;2022-08-19T01:38:20;100751.13;;;20.09;100.00
48824;BME280;34640;53.590;10.054;2022-08-19T01:41:33;100742.28;;;20.07;100.00
48824;BME280;34640;53.590;10.054;2022-08-19T01:44:44;100738.69;;;20.04;100.00
48824;BME280;34640;53.590;10.054;2022-08-19T01:47:55;100737.78;;;20.03;100.00
48824;BME280;34640;53.590;10.054;2022-08-19T01:51:10;100735.13;;;20.02;100.00
48824;BME280;34640;53.590;10.054;2022-08-19T01:54:23;100725.53;;;20.07;100.00
48824;BME280;34640;53.590;10.054;2022-08-19T01:57:37;100727.31;;;20.08;100.00
48824;BME280;34640;53.590;10.054;2022-08-19T02:00:49;100732.63;;;20.09;100.00
48824;BME280;34640;53.590;10.054;2022-08-19T02:04:00;100733.50;;;20.10;100.00
48824;BME280;34640;53.590;10.054;2022-08-19T02:07:10;100729.03;;;20.06;100.00
48824;BME280;34640;53.590;10.054;2022-08-19T02:10:21;100726.09;;;19.94;100.00
48824;BME280;34640;53.590;10.054;2022-08-19T02:13:34;100727.13;;;19.99;100.00
48824;BME280;34640;53.590;10.054;2022-08-19T02:16:44;100720.13;;;20.02;100.00
48824;BME280;34640;53.590;10.054;2022-08-19T02:19:55;100711.13;;;19.94;100.00
48824;BME280;34640;53.590;10.054;2022-08-19T02:23:06;100702.31;;;19.94;100.00
48824;BME280;34640;53.590;10.054;2022-08-19T02:26:23;100694.38;;;19.94;100.00
48824;BME280;34640;53.590;10.054;2022-08-19T02:29:36;100693.44;;;19.90;100.00
48824;BME280;34640;53.590;10.054;2022-08-19T02:32:46;100697.84;;;19.90;100.00
48824;BME280;34640;53.590;10.054;2022-08-19T02:35:56;100717.16;;;19.87;100.00
48824;BME280;34640;53.590;10.054;2022-08-19T02:39:07;100725.84;;;19.80;100.00
48824;BME280;34640;53.590;10.054;2022-08-19T02:42:17;100722.13;;;19.73;100.00
48824;BME280;34640;53.590;10.054;2022-08-19T02:45:31;100723.91;;;19.73;100.00
48824;BME280;34640;53.590;10.054;2022-08-19T02:48:42;100717.81;;;19.75;100.00
48824;BME280;34640;53.590;10.054;2022-08-19T02:51:52;100707.25;;;19.75;100.00
48824;BME280;34640;53.590;10.054;2022-08-19T02:55:04;100707.31;;;19.78;100.00
48824;BME280;34640;53.590;10.054;2022-08-19T02:58:15;100715.06;;;19.72;100.00
48824;BME280;34640;53.590;10.054;2022-08-19T03:01:31;100718.53;;;19.70;100.00
48824;BME280;34640;53.590;10.054;2022-08-19T03:04:42;100714.94;;;19.66;100.00
48824;BME280;34640;53.590;10.054;2022-08-19T03:07:52;100714.06;;;19.66;100.00
48824;BME280;34640;53.590;10.054;2022-08-19T03:11:03;100715.69;;;19.59;100.00
48824;BME280;34640;53.590;10.054;2022-08-19T03:14:14;100719.19;;;19.58;100.00
48824;BME280;34640;53.590;10.054;2022-08-19T03:17:28;100718.38;;;19.62;100.00
48824;BME280;34640;53.590;10.054;2022-08-19T03:20:42;100716.44;;;19.53;100.00
48824;BME280;34640;53.590;10.054;2022-08-19T03:23:53;100719.28;;;19.63;100.00
48824;BME280;34640;53.590;10.054;2022-08-19T03:27:04;100710.53;;;19.65;100.00
48824;BME280;34640;53.590;10.054;2022-08-19T03:30:14;100718.44;;;19.65;100.00
48824;BME280;34640;53.590;10.054;2022-08-19T03:33:35;100714.91;;;19.65;100.00
48824;BME280;34640;53.590;10.054;2022-08-19T03:36:46;100717.44;;;19.59;100.00
48824;BME280;34640;53.590;10.054;2022-08-19T03:39:56;100721.00;;;19.61;100.00
48824;BME280;34640;53.590;10.054;2022-08-19T03:43:07;100715.69;;;19.59;100.00
48824;BME280;34640;53.590;10.054;2022-08-19T03:46:19;100716.38;;;19.52;100.00
48824;BME280;34640;53.590;10.054;2022-08-19T03:49:33;100733.03;;;19.49;100.00
48824;BME280;34640;53.590;10.054;2022-08-19T03:52:48;100735.66;;;19.49;100.00
48824;BME280;34640;53.590;10.054;2022-08-19T03:55:59;100736.53;;;19.48;100.00
48824;BME280;34640;53.590;10.054;2022-08-19T03:59:12;100740.00;;;19.46;100.00
48824;BME280;34640;53.590;10.054;2022-08-19T04:02:23;100757.59;;;19.45;100.00
48824;BME280;34640;53.590;10.054;2022-08-19T04:05:35;100761.06;;;19.43;100.00
48824;BME280;34640;53.590;10.054;2022-08-19T04:08:48;100757.50;;;19.42;100.00
48824;BME280;34640;53.590;10.054;2022-08-19T04:11:59;100756.63;;;19.42;100.00
48824;BME280;34640;53.590;10.054;2022-08-19T04:15:10;100758.38;;;19.41;100.00
48824;BME280;34640;53.590;10.054;2022-08-19T04:18:21;100761.97;;;19.45;100.00
48824;BME280;34640;53.590;10.054;2022-08-19T04:21:34;100778.78;;;19.48;100.00
48824;BME280;34640;53.590;10.054;2022-08-19T04:24:44;100782.31;;;19.49;100.00
48824;BME280;34640;53.590;10.054;2022-08-19T04:27:55;100773.47;;;19.47;100.00
48824;BME280;34640;53.590;10.054;2022-08-19T04:31:05;100779.56;;;19.44;100.00
48824;BME280;34640;53.590;10.054;2022-08-19T04:34:12;100783.13;;;19.46;100.00
48824;BME280;34640;53.590;10.054;2022-08-19T04:37:24;100789.31;;;19.47;100.00
48824;BME280;34640;53.590;10.054;2022-08-19T04:40:45;100785.81;;;19.48;100.00
48824;BME280;34640;53.590;10.054;2022-08-19T04:44:14;100777.03;;;19.49;100.00
48824;BME280;34640;53.590;10.054;2022-08-19T04:47:27;100785.81;;;19.48;100.00
48824;BME280;34640;53.590;10.054;2022-08-19T04:50:58;100780.53;;;19.48;100.00
48824;BME280;34640;53.590;10.054;2022-08-19T04:54:10;100787.56;;;19.47;100.00
48824;BME280;34640;53.590;10.054;2022-08-19T04:57:21;100789.25;;;19.44;100.00
48824;BME280;34640;53.590;10.054;2022-08-19T05:00:31;100792.75;;;19.43;100.00
48824;BME280;34640;53.590;10.054;2022-08-19T05:03:45;100797.19;;;19.44;100.00
48824;BME280;34640;53.590;10.054;2022-08-19T05:06:56;100789.03;;;19.35;100.00
48824;BME280;34640;53.590;10.054;2022-08-19T05:10:11;100794.50;;;19.42;100.00
48824;BME280;34640;53.590;10.054;2022-08-19T05:13:21;100790.94;;;19.40;100.00
48824;BME280;34640;53.590;10.054;2022-08-19T05:16:32;100801.47;;;19.39;100.00
48824;BME280;34640;53.590;10.054;2022-08-19T05:19:43;100804.94;;;19.38;100.00
48824;BME280;34640;53.590;10.054;2022-08-19T05:23:11;100803.25;;;19.40;100.00
48824;BME280;34640;53.590;10.054;2022-08-19T05:26:32;100806.88;;;19.45;100.00
48824;BME280;34640;53.590;10.054;2022-08-19T05:29:42;100811.16;;;19.40;100.00
48824;BME280;34640;53.590;10.054;2022-08-19T05:32:52;100812.06;;;19.40;100.00
48824;BME280;34640;53.590;10.054;2022-08-19T05:36:04;100810.28;;;19.39;100.00
48824;BME280;34640;53.590;10.054;2022-08-19T05:39:18;100808.56;;;19.41;100.00
48824;BME280;34640;53.590;10.054;2022-08-19T05:42:31;100804.19;;;19.43;100.00
48824;BME280;34640;53.590;10.054;2022-08-19T05:45:42;100805.03;;;19.41;100.00
48824;BME280;34640;53.590;10.054;2022-08-19T05:48:53;100807.66;;;19.41;100.00
48824;BME280;34640;53.590;10.054;2022-08-19T05:52:07;100803.16;;;19.37;100.00
48824;BME280;34640;53.590;10.054;2022-08-19T05:55:18;100810.16;;;19.35;100.00
48824;BME280;34640;53.590;10.054;2022-08-19T05:58:30;100800.28;;;19.28;100.00
48824;BME280;34640;53.590;10.054;2022-08-19T06:01:44;100802.88;;;19.26;100.00
48824;BME280;34640;53.590;10.054;2022-08-19T06:04:55;100804.66;;;19.27;100.00
48824;BME280;34640;53.590;10.054;2022-08-19T06:08:05;100804.66;;;19.27;100.00
48824;BME280;34640;53.590;10.054;2022-08-19T06:11:21;100799.44;;;19.29;100.00
48824;BME280;34640;53.590;10.054;2022-08-19T06:14:34;100803.06;;;19.32;100.00
48824;BME280;34640;53.590;10.054;2022-08-19T06:17:48;100801.34;;;19.34;100.00
48824;BME280;34640;53.590;10.054;2022-08-19T06:20:59;100798.00;;;19.41;100.00
48824;BME280;34640;53.590;10.054;2022-08-19T06:24:15;100809.53;;;19.45;100.00
48824;BME280;34640;53.590;10.054;2022-08-19T06:27:26;100810.44;;;19.47;100.00
48824;BME280;34640;53.590;10.054;2022-08-19T06:30:40;100807.09;;;19.52;100.00
48824;BME280;34640;53.590;10.054;2022-08-19T06:33:50;100807.22;;;19.57;100.00
48824;BME280;34640;53.590;10.054;2022-08-19T06:37:01;100809.97;;;19.62;100.00
48824;BME280;34640;53.590;10.054;2022-08-19T06:40:12;100807.47;;;19.68;100.00
48824;BME280;34640;53.590;10.054;2022-08-19T06:43:23;100803.28;;;19.76;100.00
48824;BME280;34640;53.590;10.054;2022-08-19T06:46:39;100791.94;;;19.81;100.00
48824;BME280;34640;53.590;10.054;2022-08-19T06:49:53;100783.22;;;19.86;100.00
48824;BME280;34640;53.590;10.054;2022-08-19T06:53:09;100788.50;;;19.86;100.00
48824;BME280;34640;53.590;10.054;2022-08-19T06:56:24;100798.94;;;19.79;100.00
48824;BME280;34640;53.590;10.054;2022-08-19T06:59:39;100804.06;;;19.73;100.00
48824;BME280;34640;53.590;10.054;2022-08-19T07:02:51;100805.00;;;19.74;100.00
48824;BME280;34640;53.590;10.054;2022-08-19T07:06:11;100803.31;;;19.77;100.00
48824;BME280;34640;53.590;10.054;2022-08-19T07:09:45;100811.31;;;19.80;100.00
48824;BME280;34640;53.590;10.054;2022-08-19T07:13:08;100798.97;;;19.81;100.00
48824;BME280;34640;53.590;10.054;2022-08-19T07:16:19;100797.22;;;19.81;100.00
48824;BME280;34640;53.590;10.054;2022-08-19T07:19:40;100800.00;;;19.88;100.00
48824;BME280;34640;53.590;10.054;2022-08-19T07:22:51;100803.56;;;19.90;100.00
48824;BME280;34640;53.590;10.054;2022-08-19T07:26:06;100795.72;;;19.94;100.00
48824;BME280;34640;53.590;10.054;2022-08-19T07:29:17;100810.91;;;20.01;100.00
48824;BME280;34640;53.590;10.054;2022-08-19T07:32:27;100812.88;;;20.11;100.00
48824;BME280;34640;53.590;10.054;2022-08-19T07:35:41;100816.75;;;20.27;100.00
48824;BME280;34640;53.590;10.054;2022-08-19T07:38:52;100824.81;;;20.35;100.00
48824;BME280;34640;53.590;10.054;2022-08-19T07:42:06;100832.78;;;20.36;100.00
48824;BME280;34640;53.590;10.054;2022-08-19T07:45:17;100834.47;;;20.31;100.00
48824;BME280;34640;53.590;10.054;2022-08-19T07:48:28;100830.00;;;20.29;100.00
48824;BME280;34640;53.590;10.054;2022-08-19T07:51:40;100837.97;;;20.30;100.00
48824;BME280;34640;53.590;10.054;2022-08-19T07:54:50;100845.13;;;20.36;100.00
48824;BME280;34640;53.590;10.054;2022-08-19T07:58:01;100849.53;;;20.35;100.00
48824;BME280;34640;53.590;10.054;2022-08-19T08:01:18;100854.13;;;20.41;100.00
48824;BME280;34640;53.590;10.054;2022-08-19T08:04:30;100857.66;;;20.41;100.00
48824;BME280;34640;53.590;10.054;2022-08-19T08:08:11;100865.66;;;20.44;100.00
48824;BME280;34640;53.590;10.054;2022-08-19T08:11:54;100868.34;;;20.48;100.00
48824;BME280;34640;53.590;10.054;2022-08-19T08:15:15;100871.78;;;20.42;100.00
48824;BME280;34640;53.590;10.054;2022-08-19T08:18:27;100860.94;;;20.33;100.00
48824;BME280;34640;53.590;10.054;2022-08-19T08:21:38;100870.81;;;20.40;100.00
48824;BME280;34640;53.590;10.054;2022-08-19T08:24:55;100870.09;;;20.46;100.00
48824;BME280;34640;53.590;10.054;2022-08-19T08:28:07;100878.03;;;20.47;100.00
48824;BME280;34640;53.590;10.054;2022-08-19T08:31:25;100875.53;;;20.53;100.00
48824;BME280;34640;53.590;10.054;2022-08-19T08:34:37;100873.81;;;20.55;100.00
48824;BME280;34640;53.590;10.054;2022-08-19T08:37:49;100874.50;;;20.47;100.00
48824;BME280;34640;53.590;10.054;2022-08-19T08:41:08;100885.19;;;20.51;100.00
48824;BME280;34640;53.590;10.054;2022-08-19T08:44:22;100881.72;;;20.54;100.00
48824;BME280;34640;53.590;10.054;2022-08-19T08:47:35;100880.00;;;20.57;100.00
48824;BME280;34640;53.590;10.054;2022-08-19T08:50:51;100886.13;;;20.55;100.00
48824;BME280;34640;53.590;10.054;2022-08-19T08:54:06;100882.66;;;20.57;100.00
48824;BME280;34640;53.590;10.054;2022-08-19T08:57:24;100882.53;;;20.51;100.00
48824;BME280;34640;53.590;10.054;2022-08-19T09:00:45;100879.91;;;20.51;100.00
48824;BME280;34640;53.590;10.054;2022-08-19T09:03:56;100882.63;;;20.56;100.00
48824;BME280;34640;53.590;10.054;2022-08-19T09:07:25;100883.53;;;20.56;100.00
48824;BME280;34640;53.590;10.054;2022-08-19T09:10:46;100885.38;;;20.60;100.00
48824;BME280;34640;53.590;10.054;2022-08-19T09:14:10;100881.91;;;20.63;100.00
48824;BME280;34640;53.590;10.054;2022-08-19T09:17:41;100885.44;;;20.62;100.00
48824;BME280;34640;53.590;10.054;2022-08-19T09:20:58;100887.97;;;20.59;100.00
48824;BME280;34640;53.590;10.054;2022-08-19T09:24:09;100887.06;;;20.57;100.00
48824;BME280;34640;53.590;10.054;2022-08-19T09:27:19;100894.91;;;20.52;100.00
48824;BME280;34640;53.590;10.054;2022-08-19T09:30:54;100894.88;;;20.51;100.00
48824;BME280;34640;53.590;10.054;2022-08-19T09:34:04;100886.06;;;20.52;100.00
48824;BME280;34640;53.590;10.054;2022-08-19T09:37:14;100886.13;;;20.55;100.00
48824;BME280;34640;53.590;10.054;2022-08-19T09:40:25;100878.19;;;20.55;100.00
48824;BME280;34640;53.590;10.054;2022-08-19T09:43:40;100884.38;;;20.55;100.00
48824;BME280;34640;53.590;10.054;2022-08-19T09:46:57;100885.28;;;20.56;100.00
48824;BME280;34640;53.590;10.054;2022-08-19T09:50:10;100880.88;;;20.56;100.00
48824;BME280;34640;53.590;10.054;2022-08-19T09:53:26;100883.34;;;20.47;100.00
48824;BME280;34640;53.590;10.054;2022-08-19T09:56:39;100882.50;;;20.50;100.00
48824;BME280;34640;53.590;10.054;2022-08-19T09:59:50;100889.72;;;20.58;100.00
48824;BME280;34640;53.590;10.054;2022-08-19T10:03:01;100881.94;;;20.64;100.00
48824;BME280;34640;53.590;10.054;2022-08-19T10:06:15;100883.88;;;20.73;100.00
48824;BME280;34640;53.590;10.054;2022-08-19T10:09:45;100882.47;;;20.90;100.00
48824;BME280;34640;53.590;10.054;2022-08-19T10:12:56;100880.66;;;20.88;100.00
48824;BME280;34640;53.590;10.054;2022-08-19T10:16:08;100875.28;;;20.83;100.00
48824;BME280;34640;53.590;10.054;2022-08-19T10:19:21;100885.97;;;20.89;100.00
48824;BME280;34640;53.590;10.054;2022-08-19T10:22:34;100894.06;;;20.97;100.00
48824;BME280;34640;53.590;10.054;2022-08-19T10:25:46;100893.34;;;21.04;100.00
48824;BME280;34640;53.590;10.054;2022-08-19T10:28:57;100893.53;;;21.15;100.00
48824;BME280;34640;53.590;10.054;2022-08-19T10:32:09;100886.59;;;21.23;100.00
48824;BME280;34640;53.590;10.054;2022-08-19T10:35:24;100887.69;;;21.31;100.00
48824;BME280;34640;53.590;10.054;2022-08-19T10:38:36;100889.50;;;21.33;100.00
48824;BME280;34640;53.590;10.054;2022-08-19T10:41:46;100883.25;;;21.28;100.00
48824;BME280;34640;53.590;10.054;2022-08-19T10:44:57;100889.50;;;21.33;100.00
48824;BME280;34640;53.590;10.054;2022-08-19T10:48:09;100890.28;;;21.26;100.00
48824;BME280;34640;53.590;10.054;2022-08-19T10:51:29;100880.63;;;21.30;100.00
48824;BME280;34640;53.590;10.054;2022-08-19T10:54:57;100885.13;;;21.35;100.00
48824;BME280;34640;53.590;10.054;2022-08-19T10:58:25;100884.06;;;21.26;100.00
48824;BME280;34640;53.590;10.054;2022-08-19T11:01:35;100883.13;;;21.24;100.00
48824;BME280;34640;53.590;10.054;2022-08-19T11:04:45;100888.38;;;21.22;100.00
48824;BME280;34640;53.590;10.054;2022-08-19T11:08:01;100883.00;;;21.19;100.00
48824;BME280;34640;53.590;10.054;2022-08-19T11:11:31;100883.97;;;21.23;100.00
48824;BME280;34640;53.590;10.054;2022-08-19T11:14:47;100877.84;;;21.24;100.00
48824;BME280;34640;53.590;10.054;2022-08-19T11:17:58;100880.31;;;21.16;100.00
48824;BME280;34640;53.590;10.054;2022-08-19T11:21:11;100883.81;;;21.15;100.00
48824;BME280;34640;53.590;10.054;2022-08-19T11:24:24;100889.25;;;21.23;100.00
48824;BME280;34640;53.590;10.054;2022-08-19T11:27:38;100899.09;;;21.27;100.00
48824;BME280;34640;53.590;10.054;2022-08-19T11:30:51;100896.56;;;21.33;100.00
48824;BME280;34640;53.590;10.054;2022-08-19T11:34:04;100896.59;;;21.34;100.00
48824;BME280;34640;53.590;10.054;2022-08-19T11:37:16;100888.69;;;21.38;100.00
48824;BME280;34640;53.590;10.054;2022-08-19T11:40:28;100882.91;;;21.60;100.00
48824;BME280;34640;53.590;10.054;2022-08-19T11:43:38;100871.78;;;21.82;100.00
48824;BME280;34640;53.590;10.054;2022-08-19T11:46:48;100884.31;;;21.91;100.00
48824;BME280;34640;53.590;10.054;2022-08-19T11:49:58;100875.53;;;21.96;100.00
48824;BME280;34640;53.590;10.054;2022-08-19T11:53:09;100870.28;;;22.00;100.00
48824;BME280;34640;53.590;10.054;2022-08-19T11:56:21;100872.97;;;22.03;100.00
48824;BME280;34640;53.590;10.054;2022-08-19T11:59:33;100873.97;;;22.08;100.00
48824;BME280;34640;53.590;10.054;2022-08-19T12:02:43;100866.97;;;22.13;100.00
48824;BME280;34640;53.590;10.054;2022-08-19T12:05:54;100874.97;;;22.16;100.00
48824;BME280;34640;53.590;10.054;2022-08-19T12:09:06;100875.03;;;22.19;100.00
48824;BME280;34640;53.590;10.054;2022-08-19T12:12:18;100874.09;;;22.15;100.00
48824;BME280;34640;53.590;10.054;2022-08-19T12:15:30;100875.94;;;22.21;100.00
48824;BME280;34640;53.590;10.054;2022-08-19T12:18:45;100872.50;;;22.30;100.00
48824;BME280;34640;53.590;10.054;2022-08-19T12:21:58;100879.81;;;22.47;100.00
48824;BME280;34640;53.590;10.054;2022-08-19T12:25:11;100878.22;;;22.59;100.00
48824;BME280;34640;53.590;10.054;2022-08-19T12:28:24;100876.56;;;22.68;100.00
48824;BME280;34640;53.590;10.054;2022-08-19T12:31:35;100874.16;;;22.86;99.29
48824;BME280;34640;53.590;10.054;2022-08-19T12:34:45;100877.06;;;23.11;97.74
48824;BME280;34640;53.590;10.054;2022-08-19T12:37:55;100878.25;;;23.40;96.04
48824;BME280;34640;53.590;10.054;2022-08-19T12:41:11;100872.25;;;23.61;93.59
48824;BME280;34640;53.590;10.054;2022-08-19T12:44:23;100859.97;;;23.72;91.36
48824;BME280;34640;53.590;10.054;2022-08-19T12:47:38;100869.66;;;23.66;91.23
48824;BME280;34640;53.590;10.054;2022-08-19T12:50:51;100868.72;;;23.61;91.16
48824;BME280;34640;53.590;10.054;2022-08-19T12:54:03;100862.53;;;23.63;90.96
48824;BME280;34640;53.590;10.054;2022-08-19T12:57:13;100872.38;;;23.75;90.72
48824;BME280;34640;53.590;10.054;2022-08-19T13:00:26;100865.34;;;23.83;89.40
48824;BME280;34640;53.590;10.054;2022-08-19T13:03:37;100866.31;;;23.93;89.32
48824;BME280;34640;53.590;10.054;2022-08-19T13:06:48;100870.75;;;23.95;87.88
48824;BME280;34640;53.590;10.054;2022-08-19T13:09:59;100860.91;;;23.85;87.87
48824;BME280;34640;53.590;10.054;2022-08-19T13:13:09;100861.75;;;23.76;88.88
48824;BME280;34640;53.590;10.054;2022-08-19T13:16:22;100857.22;;;23.63;90.51
48824;BME280;34640;53.590;10.054;2022-08-19T13:19:32;100852.56;;;23.41;90.89
48824;BME280;34640;53.590;10.054;2022-08-19T13:22:42;100858.66;;;23.29;91.93
48824;BME280;34640;53.590;10.054;2022-08-19T13:25:57;100852.50;;;23.33;91.08
48824;BME280;34640;53.590;10.054;2022-08-19T13:29:08;100856.06;;;23.35;92.00
48824;BME280;34640;53.590;10.054;2022-08-19T13:32:37;100846.31;;;23.37;91.88
48824;BME280;34640;53.590;10.054;2022-08-19T13:36:05;100855.25;;;23.42;92.12
48824;BME280;34640;53.590;10.054;2022-08-19T13:39:16;100852.66;;;23.50;91.73
48824;BME280;34640;53.590;10.054;2022-08-19T13:42:26;100842.03;;;23.55;91.75
48824;BME280;34640;53.590;10.054;2022-08-19T13:45:41;100829.69;;;23.58;90.83
48824;BME280;34640;53.590;10.054;2022-08-19T13:48:53;100840.38;;;23.63;89.88
48824;BME280;34640;53.590;10.054;2022-08-19T13:52:03;100834.06;;;23.53;90.02
48824;BME280;34640;53.590;10.054;2022-08-19T13:55:15;100836.69;;;23.48;89.15
48824;BME280;34640;53.590;10.054;2022-08-19T13:58:33;100841.13;;;23.51;88.63
48824;BME280;34640;53.590;10.054;2022-08-19T14:01:43;100837.53;;;23.44;89.36
48824;BME280;34640;53.590;10.054;2022-08-19T14:04:55;100840.97;;;23.31;89.16
48824;BME280;34640;53.590;10.054;2022-08-19T14:08:07;100849.78;;;23.27;89.43
48824;BME280;34640;53.590;10.054;2022-08-19T14:11:18;100842.72;;;23.31;89.51
48824;BME280;34640;53.590;10.054;2022-08-19T14:14:28;100837.38;;;23.26;89.32
48824;BME280;34640;53.590;10.054;2022-08-19T14:17:39;100831.16;;;23.23;90.55
48824;BME280;34640;53.590;10.054;2022-08-19T14:20:53;100827.53;;;23.19;90.95
48824;BME280;34640;53.590;10.054;2022-08-19T14:24:05;100838.19;;;23.21;90.07
48824;BME280;34640;53.590;10.054;2022-08-19T14:27:15;100846.13;;;23.17;90.57
48824;BME280;34640;53.590;10.054;2022-08-19T14:30:28;100845.22;;;23.14;91.02
48824;BME280;34640;53.590;10.054;2022-08-19T14:33:39;100841.63;;;23.09;90.94
48824;BME280;34640;53.590;10.054;2022-08-19T14:36:51;100838.97;;;23.09;91.67
48824;BME280;34640;53.590;10.054;2022-08-19T14:40:03;100848.69;;;23.07;92.14
48824;BME280;34640;53.590;10.054;2022-08-19T14:43:14;100846.97;;;23.12;91.42
48824;BME280;34640;53.590;10.054;2022-08-19T14:46:28;100839.88;;;23.12;91.62
48824;BME280;34640;53.590;10.054;2022-08-19T14:49:38;100848.72;;;23.10;91.21
48824;BME280;34640;53.590;10.054;2022-08-19T14:53:04;100846.06;;;23.08;91.36
48824;BME280;34640;53.590;10.054;2022-08-19T14:56:23;100838.09;;;23.10;89.37
48824;BME280;34640;53.590;10.054;2022-08-19T14:59:34;100849.56;;;23.06;89.34
48824;BME280;34640;53.590;10.054;2022-08-19T15:02:44;100845.22;;;23.12;88.64
48824;BME280;34640;53.590;10.054;2022-08-19T15:05:56;100861.19;;;23.15;88.20
48824;BME280;34640;53.590;10.054;2022-08-19T15:09:09;100860.31;;;23.18;88.78
48824;BME280;34640;53.590;10.054;2022-08-19T15:12:19;100862.09;;;23.21;88.59
48824;BME280;34640;53.590;10.054;2022-08-19T15:15:30;100863.03;;;23.23;88.12
48824;BME280;34640;53.590;10.054;2022-08-19T15:18:41;100865.72;;;23.26;87.83
48824;BME280;34640;53.590;10.054;2022-08-19T15:21:53;100865.72;;;23.26;87.69
48824;BME280;34640;53.590;10.054;2022-08-19T15:25:08;100864.00;;;23.32;87.77
48824;BME280;34640;53.590;10.054;2022-08-19T15:28:20;100861.34;;;23.34;88.68
48824;BME280;34640;53.590;10.054;2022-08-19T15:31:31;100865.81;;;23.38;88.99
48824;BME280;34640;53.590;10.054;2022-08-19T15:34:46;100866.78;;;23.44;88.27
48824;BME280;34640;53.590;10.054;2022-08-19T15:37:57;100878.34;;;23.48;87.66
48824;BME280;34640;53.590;10.054;2022-08-19T15:41:16;100863.25;;;23.47;87.67
48824;BME280;34640;53.590;10.054;2022-08-19T15:44:33;100872.13;;;23.46;87.46
48824;BME280;34640;53.590;10.054;2022-08-19T15:47:43;100868.53;;;23.42;86.89
48824;BME280;34640;53.590;10.054;2022-08-19T15:50:54;100861.47;;;23.46;86.88
48824;BME280;34640;53.590;10.054;2022-08-19T15:54:08;100870.47;;;23.60;85.97
48824;BME280;34640;53.590;10.054;2022-08-19T15:57:20;100864.34;;;23.64;85.75
48824;BME280;34640;53.590;10.054;2022-08-19T16:00:48;100861.75;;;23.73;84.65
48824;BME280;34640;53.590;10.054;2022-08-19T16:04:21;100861.75;;;23.75;83.67
48824;BME280;34640;53.590;10.054;2022-08-19T16:07:49;100858.16;;;23.67;84.33
48824;BME280;34640;53.590;10.054;2022-08-19T16:10:59;100864.28;;;23.61;84.29
48824;BME280;34640;53.590;10.054;2022-08-19T16:14:10;100858.00;;;23.55;84.16
48824;BME280;34640;53.590;10.054;2022-08-19T16:17:21;100865.91;;;23.45;83.38
48824;BME280;34640;53.590;10.054;2022-08-19T16:20:31;100865.81;;;23.38;84.02
48824;BME280;34640;53.590;10.054;2022-08-19T16:23:44;100856.94;;;23.36;84.27
48824;BME280;34640;53.590;10.054;2022-08-19T16:26:56;100858.69;;;23.34;84.84
48824;BME280;34640;53.590;10.054;2022-08-19T16:30:08;100855.13;;;23.32;85.25